ΕΜΥ, Εθνική Μετεωρολογική Υπηρεσία - Δελτία Καιρού, Προγνώσεις

ΑΕΡΟΝΑΥΤΙΛΙΑ

GREEK AIRPORTS CODES

TAF LGTT 090700Z 0909/0918 20010KT 9999 FEW020 SCT050 BECMG 0910/0912 18015G25KT=

EUROPEAN AIRPORTS CODES

LFPO 090700Z 25007KT 220V280 CAVOK 02/01 Q1007 NOSIG=